sensor_id;sensor_type;location;lat;lon;timestamp;temperature;humidity
7296;DHT22;40758;54.038;11.684;2022-08-01T00:01:47;19.00;99.90
7296;DHT22;40758;54.038;11.684;2022-08-01T00:04:17;19.00;99.90
7296;DHT22;40758;54.038;11.684;2022-08-01T00:06:46;19.00;99.90
7296;DHT22;40758;54.038;11.684;2022-08-01T00:09:15;19.00;99.90
7296;DHT22;40758;54.038;11.684;2022-08-01T00:11:51;19.00;99.90
7296;DHT22;40758;54.038;11.684;2022-08-01T00:14:32;19.00;99.90
7296;DHT22;40758;54.038;11.684;2022-08-01T00:17:01;19.10;99.90
7296;DHT22;40758;54.038;11.684;2022-08-01T00:19:33;19.00;99.90
7296;DHT22;40758;54.038;11.684;2022-08-01T00:22:02;19.00;99.90
7296;DHT22;40758;54.038;11.684;2022-08-01T00:24:31;19.00;99.90
7296;DHT22;40758;54.038;11.684;2022-08-01T00:27:02;18.90;99.90
7296;DHT22;40758;54.038;11.684;2022-08-01T00:29:31;19.00;99.90
7296;DHT22;40758;54.038;11.684;2022-08-01T00:32:20;19.00;99.90
7296;DHT22;40758;54.038;11.684;2022-08-01T00:34:50;19.10;99.90
7296;DHT22;40758;54.038;11.684;2022-08-01T00:37:19;19.10;99.90
7296;DHT22;40758;54.038;11.684;2022-08-01T00:39:47;19.10;99.90
7296;DHT22;40758;54.038;11.684;2022-08-01T00:42:18;19.10;99.90
7296;DHT22;40758;54.038;11.684;2022-08-01T00:44:47;19.10;99.90
7296;DHT22;40758;54.038;11.684;2022-08-01T00:47:17;19.10;99.90
7296;DHT22;40758;54.038;11.684;2022-08-01T00:49:45;19.10;99.90
7296;DHT22;40758;54.038;11.684;2022-08-01T00:52:14;19.10;99.90
7296;DHT22;40758;54.038;11.684;2022-08-01T00:54:43;19.10;99.90
7296;DHT22;40758;54.038;11.684;2022-08-01T00:57:13;19.10;99.90
7296;DHT22;40758;54.038;11.684;2022-08-01T01:00:05;19.10;99.90
7296;DHT22;40758;54.038;11.684;2022-08-01T01:02:35;19.20;99.90
7296;DHT22;40758;54.038;11.684;2022-08-01T01:05:05;19.20;99.90
7296;DHT22;40758;54.038;11.684;2022-08-01T01:07:40;19.20;99.90
7296;DHT22;40758;54.038;11.684;2022-08-01T01:10:19;19.20;99.90
7296;DHT22;40758;54.038;11.684;2022-08-01T01:12:55;19.30;99.90
7296;DHT22;40758;54.038;11.684;2022-08-01T01:15:34;19.30;99.90
7296;DHT22;40758;54.038;11.684;2022-08-01T01:18:12;19.30;99.90
7296;DHT22;40758;54.038;11.684;2022-08-01T01:20:52;19.20;99.90
7296;DHT22;40758;54.038;11.684;2022-08-01T01:23:45;19.20;99.90
7296;DHT22;40758;54.038;11.684;2022-08-01T01:26:31;19.20;99.90
7296;DHT22;40758;54.038;11.684;2022-08-01T01:29:14;19.20;99.90
7296;DHT22;40758;54.038;11.684;2022-08-01T01:31:48;19.20;99.90
7296;DHT22;40758;54.038;11.684;2022-08-01T01:34:21;19.20;99.90
7296;DHT22;40758;54.038;11.684;2022-08-01T01:36:54;19.20;99.90
7296;DHT22;40758;54.038;11.684;2022-08-01T01:39:27;19.10;99.90
7296;DHT22;40758;54.038;11.684;2022-08-01T01:41:58;19.10;99.90
7296;DHT22;40758;54.038;11.684;2022-08-01T01:44:31;19.10;99.90
7296;DHT22;40758;54.038;11.684;2022-08-01T01:47:01;19.10;99.90
7296;DHT22;40758;54.038;11.684;2022-08-01T01:49:32;19.10;99.90
7296;DHT22;40758;54.038;11.684;2022-08-01T01:52:03;19.10;99.90
7296;DHT22;40758;54.038;11.684;2022-08-01T01:54:37;19.10;99.90
7296;DHT22;40758;54.038;11.684;2022-08-01T01:57:10;19.10;99.90
7296;DHT22;40758;54.038;11.684;2022-08-01T01:59:44;19.20;99.90
7296;DHT22;40758;54.038;11.684;2022-08-01T02:02:16;19.20;99.90
7296;DHT22;40758;54.038;11.684;2022-08-01T02:04:48;19.20;99.90
7296;DHT22;40758;54.038;11.684;2022-08-01T02:07:20;19.20;99.90
7296;DHT22;40758;54.038;11.684;2022-08-01T02:09:55;19.20;99.90
7296;DHT22;40758;54.038;11.684;2022-08-01T02:12:26;19.30;99.90
7296;DHT22;40758;54.038;11.684;2022-08-01T02:15:00;19.30;99.90
7296;DHT22;40758;54.038;11.684;2022-08-01T02:17:30;19.30;99.90
7296;DHT22;40758;54.038;11.684;2022-08-01T02:20:06;19.30;99.90
7296;DHT22;40758;54.038;11.684;2022-08-01T02:22:40;19.30;99.90
7296;DHT22;40758;54.038;11.684;2022-08-01T02:25:18;19.30;99.90
7296;DHT22;40758;54.038;11.684;2022-08-01T02:27:58;19.30;99.90
7296;DHT22;40758;54.038;11.684;2022-08-01T02:30:34;19.30;99.90
7296;DHT22;40758;54.038;11.684;2022-08-01T02:33:06;19.40;99.90
7296;DHT22;40758;54.038;11.684;2022-08-01T02:35:43;19.40;99.90
7296;DHT22;40758;54.038;11.684;2022-08-01T02:38:42;19.40;99.90
7296;DHT22;40758;54.038;11.684;2022-08-01T02:41:14;19.40;99.90
7296;DHT22;40758;54.038;11.684;2022-08-01T02:43:53;19.40;99.90
7296;DHT22;40758;54.038;11.684;2022-08-01T02:46:33;19.50;99.90
7296;DHT22;40758;54.038;11.684;2022-08-01T02:49:08;19.50;99.90
7296;DHT22;40758;54.038;11.684;2022-08-01T02:51:41;19.40;99.90
7296;DHT22;40758;54.038;11.684;2022-08-01T02:54:12;19.50;99.90
7296;DHT22;40758;54.038;11.684;2022-08-01T02:56:46;19.50;99.90
7296;DHT22;40758;54.038;11.684;2022-08-01T02:59:18;19.50;99.90
7296;DHT22;40758;54.038;11.684;2022-08-01T03:01:54;19.50;99.90
7296;DHT22;40758;54.038;11.684;2022-08-01T03:04:26;19.50;99.90
7296;DHT22;40758;54.038;11.684;2022-08-01T03:06:57;19.50;99.90
7296;DHT22;40758;54.038;11.684;2022-08-01T03:09:27;19.50;99.90
7296;DHT22;40758;54.038;11.684;2022-08-01T03:12:00;19.50;99.90
7296;DHT22;40758;54.038;11.684;2022-08-01T03:14:36;19.50;99.90
7296;DHT22;40758;54.038;11.684;2022-08-01T03:17:10;19.50;99.90
7296;DHT22;40758;54.038;11.684;2022-08-01T03:19:40;19.60;99.90
7296;DHT22;40758;54.038;11.684;2022-08-01T03:22:13;19.60;99.90
7296;DHT22;40758;54.038;11.684;2022-08-01T03:24:47;19.60;99.90
7296;DHT22;40758;54.038;11.684;2022-08-01T03:27:20;19.60;99.90
7296;DHT22;40758;54.038;11.684;2022-08-01T03:29:52;19.60;99.90
7296;DHT22;40758;54.038;11.684;2022-08-01T03:32:26;19.60;99.90
7296;DHT22;40758;54.038;11.684;2022-08-01T03:34:58;19.70;99.90
7296;DHT22;40758;54.038;11.684;2022-08-01T03:37:29;19.70;99.90
7296;DHT22;40758;54.038;11.684;2022-08-01T03:40:25;19.70;99.90
7296;DHT22;40758;54.038;11.684;2022-08-01T03:43:03;19.70;99.90
7296;DHT22;40758;54.038;11.684;2022-08-01T03:45:38;19.80;99.90
7296;DHT22;40758;54.038;11.684;2022-08-01T03:48:15;19.80;99.90
7296;DHT22;40758;54.038;11.684;2022-08-01T03:50:47;19.90;99.90
7296;DHT22;40758;54.038;11.684;2022-08-01T03:53:23;19.90;99.90
7296;DHT22;40758;54.038;11.684;2022-08-01T03:55:58;19.90;99.90
7296;DHT22;40758;54.038;11.684;2022-08-01T03:58:31;20.00;99.90
7296;DHT22;40758;54.038;11.684;2022-08-01T04:01:01;20.00;99.90
7296;DHT22;40758;54.038;11.684;2022-08-01T04:03:32;20.00;99.90
7296;DHT22;40758;54.038;11.684;2022-08-01T04:06:09;20.10;99.90
7296;DHT22;40758;54.038;11.684;2022-08-01T04:08:39;20.10;99.90
7296;DHT22;40758;54.038;11.684;2022-08-01T04:11:09;20.20;99.90
7296;DHT22;40758;54.038;11.684;2022-08-01T04:13:37;20.10;99.90
7296;DHT22;40758;54.038;11.684;2022-08-01T04:16:10;20.10;99.90
7296;DHT22;40758;54.038;11.684;2022-08-01T04:18:40;20.20;99.90
7296;DHT22;40758;54.038;11.684;2022-08-01T04:21:09;20.20;99.90
7296;DHT22;40758;54.038;11.684;2022-08-01T04:23:41;20.20;99.90
7296;DHT22;40758;54.038;11.684;2022-08-01T04:26:18;20.20;99.90
7296;DHT22;40758;54.038;11.684;2022-08-01T04:28:50;20.20;99.90
7296;DHT22;40758;54.038;11.684;2022-08-01T04:31:23;20.20;99.90
7296;DHT22;40758;54.038;11.684;2022-08-01T04:33:56;20.20;99.90
7296;DHT22;40758;54.038;11.684;2022-08-01T04:36:29;20.20;99.90
7296;DHT22;40758;54.038;11.684;2022-08-01T04:39:02;20.20;99.90
7296;DHT22;40758;54.038;11.684;2022-08-01T04:41:33;20.20;99.90
7296;DHT22;40758;54.038;11.684;2022-08-01T04:44:04;20.20;99.90
7296;DHT22;40758;54.038;11.684;2022-08-01T04:46:34;20.20;99.90
7296;DHT22;40758;54.038;11.684;2022-08-01T04:49:06;20.10;99.90
7296;DHT22;40758;54.038;11.684;2022-08-01T04:51:49;20.10;99.90
7296;DHT22;40758;54.038;11.684;2022-08-01T04:54:19;20.10;99.90
7296;DHT22;40758;54.038;11.684;2022-08-01T04:56:49;20.20;99.90
7296;DHT22;40758;54.038;11.684;2022-08-01T04:59:21;20.20;99.90
7296;DHT22;40758;54.038;11.684;2022-08-01T05:02:12;20.20;99.90
7296;DHT22;40758;54.038;11.684;2022-08-01T05:04:46;20.20;99.90
7296;DHT22;40758;54.038;11.684;2022-08-01T05:07:15;20.30;99.90
7296;DHT22;40758;54.038;11.684;2022-08-01T05:09:45;20.30;99.90
7296;DHT22;40758;54.038;11.684;2022-08-01T05:12:14;20.30;99.90
7296;DHT22;40758;54.038;11.684;2022-08-01T05:14:43;20.30;99.90
7296;DHT22;40758;54.038;11.684;2022-08-01T05:17:12;20.30;99.90
7296;DHT22;40758;54.038;11.684;2022-08-01T05:19:41;20.30;99.90
7296;DHT22;40758;54.038;11.684;2022-08-01T05:22:12;20.30;99.90
7296;DHT22;40758;54.038;11.684;2022-08-01T05:24:41;20.30;99.90
7296;DHT22;40758;54.038;11.684;2022-08-01T05:27:11;20.20;99.90
7296;DHT22;40758;54.038;11.684;2022-08-01T05:29:42;20.20;99.90
7296;DHT22;40758;54.038;11.684;2022-08-01T05:32:11;20.20;99.90
7296;DHT22;40758;54.038;11.684;2022-08-01T05:34:40;20.30;99.90
7296;DHT22;40758;54.038;11.684;2022-08-01T05:37:09;20.40;99.90
7296;DHT22;40758;54.038;11.684;2022-08-01T05:39:40;20.50;99.90
7296;DHT22;40758;54.038;11.684;2022-08-01T05:42:09;20.50;99.90
7296;DHT22;40758;54.038;11.684;2022-08-01T05:44:41;20.40;99.90
7296;DHT22;40758;54.038;11.684;2022-08-01T05:47:10;20.50;99.90
7296;DHT22;40758;54.038;11.684;2022-08-01T05:49:39;20.50;99.90
7296;DHT22;40758;54.038;11.684;2022-08-01T05:52:08;20.40;99.90
7296;DHT22;40758;54.038;11.684;2022-08-01T05:54:37;20.60;99.90
7296;DHT22;40758;54.038;11.684;2022-08-01T05:57:08;20.60;99.90
7296;DHT22;40758;54.038;11.684;2022-08-01T05:59:41;20.60;99.90
7296;DHT22;40758;54.038;11.684;2022-08-01T06:02:11;20.40;99.90
7296;DHT22;40758;54.038;11.684;2022-08-01T06:04:40;20.20;99.90
7296;DHT22;40758;54.038;11.684;2022-08-01T06:07:09;20.00;99.90
7296;DHT22;40758;54.038;11.684;2022-08-01T06:09:39;19.90;99.90
7296;DHT22;40758;54.038;11.684;2022-08-01T06:12:12;19.90;99.90
7296;DHT22;40758;54.038;11.684;2022-08-01T06:14:41;19.90;99.90
7296;DHT22;40758;54.038;11.684;2022-08-01T06:17:10;20.00;99.90
7296;DHT22;40758;54.038;11.684;2022-08-01T06:19:39;20.00;99.90
7296;DHT22;40758;54.038;11.684;2022-08-01T06:22:08;20.00;99.90
7296;DHT22;40758;54.038;11.684;2022-08-01T06:24:37;20.10;99.90
7296;DHT22;40758;54.038;11.684;2022-08-01T06:27:08;20.10;99.90
7296;DHT22;40758;54.038;11.684;2022-08-01T06:29:48;20.20;99.90
7296;DHT22;40758;54.038;11.684;2022-08-01T06:32:20;20.30;99.90
7296;DHT22;40758;54.038;11.684;2022-08-01T06:34:54;20.30;99.90
7296;DHT22;40758;54.038;11.684;2022-08-01T06:37:23;20.40;99.90
7296;DHT22;40758;54.038;11.684;2022-08-01T06:40:00;20.40;99.90
7296;DHT22;40758;54.038;11.684;2022-08-01T06:42:31;20.40;99.90
7296;DHT22;40758;54.038;11.684;2022-08-01T06:45:03;20.30;99.90
7296;DHT22;40758;54.038;11.684;2022-08-01T06:47:33;20.30;99.90
7296;DHT22;40758;54.038;11.684;2022-08-01T06:50:03;20.20;99.90
7296;DHT22;40758;54.038;11.684;2022-08-01T06:52:36;20.20;99.90
7296;DHT22;40758;54.038;11.684;2022-08-01T06:55:06;20.20;99.90
7296;DHT22;40758;54.038;11.684;2022-08-01T06:57:45;20.30;99.90
7296;DHT22;40758;54.038;11.684;2022-08-01T07:00:16;20.60;99.90
7296;DHT22;40758;54.038;11.684;2022-08-01T07:02:49;20.70;99.90
7296;DHT22;40758;54.038;11.684;2022-08-01T07:05:20;20.90;99.90
7296;DHT22;40758;54.038;11.684;2022-08-01T07:07:50;21.00;99.90
7296;DHT22;40758;54.038;11.684;2022-08-01T07:10:19;21.10;99.90
7296;DHT22;40758;54.038;11.684;2022-08-01T07:12:50;21.40;99.90
7296;DHT22;40758;54.038;11.684;2022-08-01T07:15:19;21.50;99.90
7296;DHT22;40758;54.038;11.684;2022-08-01T07:17:53;21.40;99.90
7296;DHT22;40758;54.038;11.684;2022-08-01T07:20:23;21.30;99.90
7296;DHT22;40758;54.038;11.684;2022-08-01T07:22:53;21.30;99.90
7296;DHT22;40758;54.038;11.684;2022-08-01T07:25:22;21.30;99.90
7296;DHT22;40758;54.038;11.684;2022-08-01T07:27:53;21.20;99.90
7296;DHT22;40758;54.038;11.684;2022-08-01T07:30:22;21.10;99.90
7296;DHT22;40758;54.038;11.684;2022-08-01T07:32:53;20.90;99.90
7296;DHT22;40758;54.038;11.684;2022-08-01T07:35:22;20.70;99.90
7296;DHT22;40758;54.038;11.684;2022-08-01T07:37:51;20.60;99.90
7296;DHT22;40758;54.038;11.684;2022-08-01T07:40:20;20.60;99.90
7296;DHT22;40758;54.038;11.684;2022-08-01T07:42:52;20.60;99.90
7296;DHT22;40758;54.038;11.684;2022-08-01T07:45:21;20.50;99.90
7296;DHT22;40758;54.038;11.684;2022-08-01T07:47:50;20.40;99.90
7296;DHT22;40758;54.038;11.684;2022-08-01T07:50:28;20.20;99.90
7296;DHT22;40758;54.038;11.684;2022-08-01T07:53:22;20.10;99.90
7296;DHT22;40758;54.038;11.684;2022-08-01T07:55:54;20.10;99.90
7296;DHT22;40758;54.038;11.684;2022-08-01T07:58:35;20.20;99.90
7296;DHT22;40758;54.038;11.684;2022-08-01T08:01:07;20.20;99.90
7296;DHT22;40758;54.038;11.684;2022-08-01T08:03:36;20.30;99.90
7296;DHT22;40758;54.038;11.684;2022-08-01T08:06:09;20.20;99.90
7296;DHT22;40758;54.038;11.684;2022-08-01T08:08:38;20.40;99.90
7296;DHT22;40758;54.038;11.684;2022-08-01T08:11:10;20.60;99.90
7296;DHT22;40758;54.038;11.684;2022-08-01T08:13:41;20.70;99.90
7296;DHT22;40758;54.038;11.684;2022-08-01T08:16:10;20.90;99.90
7296;DHT22;40758;54.038;11.684;2022-08-01T08:18:40;21.10;99.90
7296;DHT22;40758;54.038;11.684;2022-08-01T08:21:11;21.30;99.90
7296;DHT22;40758;54.038;11.684;2022-08-01T08:23:47;21.30;99.90
7296;DHT22;40758;54.038;11.684;2022-08-01T08:26:35;21.20;99.90
7296;DHT22;40758;54.038;11.684;2022-08-01T08:29:08;21.20;99.90
7296;DHT22;40758;54.038;11.684;2022-08-01T08:31:37;21.20;99.90
7296;DHT22;40758;54.038;11.684;2022-08-01T08:34:21;20.90;99.90
7296;DHT22;40758;54.038;11.684;2022-08-01T08:36:51;20.80;99.90
7296;DHT22;40758;54.038;11.684;2022-08-01T08:39:22;20.50;99.90
7296;DHT22;40758;54.038;11.684;2022-08-01T08:41:53;20.40;99.90
7296;DHT22;40758;54.038;11.684;2022-08-01T08:44:24;20.40;99.90
7296;DHT22;40758;54.038;11.684;2022-08-01T08:46:53;20.50;99.90
7296;DHT22;40758;54.038;11.684;2022-08-01T08:49:26;20.50;99.90
7296;DHT22;40758;54.038;11.684;2022-08-01T08:52:03;20.50;99.90
7296;DHT22;40758;54.038;11.684;2022-08-01T08:54:36;20.60;99.90
7296;DHT22;40758;54.038;11.684;2022-08-01T08:57:08;20.80;99.90
7296;DHT22;40758;54.038;11.684;2022-08-01T08:59:43;21.10;99.90
7296;DHT22;40758;54.038;11.684;2022-08-01T09:02:13;21.20;99.90
7296;DHT22;40758;54.038;11.684;2022-08-01T09:04:47;21.50;99.90
7296;DHT22;40758;54.038;11.684;2022-08-01T09:07:17;21.90;99.90
7296;DHT22;40758;54.038;11.684;2022-08-01T09:09:46;22.30;99.90
7296;DHT22;40758;54.038;11.684;2022-08-01T09:12:18;22.50;99.90
7296;DHT22;40758;54.038;11.684;2022-08-01T09:14:49;22.70;99.90
7296;DHT22;40758;54.038;11.684;2022-08-01T09:17:21;22.70;99.90
7296;DHT22;40758;54.038;11.684;2022-08-01T09:19:51;22.70;99.90
7296;DHT22;40758;54.038;11.684;2022-08-01T09:22:25;22.70;99.90
7296;DHT22;40758;54.038;11.684;2022-08-01T09:24:59;22.30;99.90
7296;DHT22;40758;54.038;11.684;2022-08-01T09:27:30;21.90;99.90
7296;DHT22;40758;54.038;11.684;2022-08-01T09:30:12;21.40;99.90
7296;DHT22;40758;54.038;11.684;2022-08-01T09:32:55;20.90;99.90
7296;DHT22;40758;54.038;11.684;2022-08-01T09:35:27;20.50;99.90
7296;DHT22;40758;54.038;11.684;2022-08-01T09:38:13;20.20;99.90
7296;DHT22;40758;54.038;11.684;2022-08-01T09:40:48;20.10;99.90
7296;DHT22;40758;54.038;11.684;2022-08-01T09:43:20;20.10;99.90
7296;DHT22;40758;54.038;11.684;2022-08-01T09:45:53;19.90;99.90
7296;DHT22;40758;54.038;11.684;2022-08-01T09:48:24;19.90;99.90
7296;DHT22;40758;54.038;11.684;2022-08-01T09:50:57;20.00;99.90
7296;DHT22;40758;54.038;11.684;2022-08-01T09:53:45;20.10;99.90
7296;DHT22;40758;54.038;11.684;2022-08-01T09:56:19;20.10;99.90
7296;DHT22;40758;54.038;11.684;2022-08-01T09:58:55;20.10;99.90
7296;DHT22;40758;54.038;11.684;2022-08-01T10:01:42;20.20;99.90
7296;DHT22;40758;54.038;11.684;2022-08-01T10:04:15;20.10;99.90
7296;DHT22;40758;54.038;11.684;2022-08-01T10:06:47;19.90;99.90
7296;DHT22;40758;54.038;11.684;2022-08-01T10:09:30;19.90;99.90
7296;DHT22;40758;54.038;11.684;2022-08-01T10:12:07;19.90;99.90
7296;DHT22;40758;54.038;11.684;2022-08-01T10:14:43;20.00;99.90
7296;DHT22;40758;54.038;11.684;2022-08-01T10:17:19;20.00;99.90
7296;DHT22;40758;54.038;11.684;2022-08-01T10:19:49;20.00;99.90
7296;DHT22;40758;54.038;11.684;2022-08-01T10:22:24;19.90;99.90
7296;DHT22;40758;54.038;11.684;2022-08-01T10:25:02;20.00;99.90
7296;DHT22;40758;54.038;11.684;2022-08-01T10:27:34;20.30;99.90
7296;DHT22;40758;54.038;11.684;2022-08-01T10:30:07;20.80;99.90
7296;DHT22;40758;54.038;11.684;2022-08-01T10:32:51;21.10;99.90
7296;DHT22;40758;54.038;11.684;2022-08-01T10:35:24;21.50;99.90
7296;DHT22;40758;54.038;11.684;2022-08-01T10:38:13;21.70;99.90
7296;DHT22;40758;54.038;11.684;2022-08-01T10:40:44;21.60;99.90
7296;DHT22;40758;54.038;11.684;2022-08-01T10:43:13;21.80;99.90
7296;DHT22;40758;54.038;11.684;2022-08-01T10:45:49;22.00;99.90
7296;DHT22;40758;54.038;11.684;2022-08-01T10:48:29;22.00;99.90
7296;DHT22;40758;54.038;11.684;2022-08-01T10:51:03;22.30;99.90
7296;DHT22;40758;54.038;11.684;2022-08-01T10:53:49;22.50;99.90
7296;DHT22;40758;54.038;11.684;2022-08-01T10:56:39;22.70;99.90
7296;DHT22;40758;54.038;11.684;2022-08-01T10:59:19;22.60;99.90
7296;DHT22;40758;54.038;11.684;2022-08-01T11:02:10;22.10;99.90
7296;DHT22;40758;54.038;11.684;2022-08-01T11:04:49;21.70;99.90
7296;DHT22;40758;54.038;11.684;2022-08-01T11:07:35;21.70;99.90
7296;DHT22;40758;54.038;11.684;2022-08-01T11:10:22;21.50;99.90
7296;DHT22;40758;54.038;11.684;2022-08-01T11:12:54;21.40;99.90
7296;DHT22;40758;54.038;11.684;2022-08-01T11:15:24;21.60;99.90
7296;DHT22;40758;54.038;11.684;2022-08-01T11:18:03;22.90;99.90
7296;DHT22;40758;54.038;11.684;2022-08-01T11:20:59;23.80;99.90
7296;DHT22;40758;54.038;11.684;2022-08-01T11:23:52;24.30;99.90
7296;DHT22;40758;54.038;11.684;2022-08-01T11:26:23;24.00;99.90
7296;DHT22;40758;54.038;11.684;2022-08-01T11:29:17;23.50;99.90
7296;DHT22;40758;54.038;11.684;2022-08-01T11:31:49;23.10;99.90
7296;DHT22;40758;54.038;11.684;2022-08-01T11:34:52;22.90;99.90
7296;DHT22;40758;54.038;11.684;2022-08-01T11:37:27;22.70;99.90
7296;DHT22;40758;54.038;11.684;2022-08-01T11:40:17;22.80;99.90
7296;DHT22;40758;54.038;11.684;2022-08-01T11:43:16;22.70;99.90
7296;DHT22;40758;54.038;11.684;2022-08-01T11:45:48;22.70;99.90
7296;DHT22;40758;54.038;11.684;2022-08-01T11:48:19;22.90;99.90
7296;DHT22;40758;54.038;11.684;2022-08-01T11:50:55;23.20;99.90
7296;DHT22;40758;54.038;11.684;2022-08-01T11:53:29;23.60;99.90
7296;DHT22;40758;54.038;11.684;2022-08-01T11:56:03;23.60;99.90
7296;DHT22;40758;54.038;11.684;2022-08-01T11:58:32;23.40;99.90
7296;DHT22;40758;54.038;11.684;2022-08-01T12:01:01;23.20;99.90
7296;DHT22;40758;54.038;11.684;2022-08-01T12:03:32;23.00;99.90
7296;DHT22;40758;54.038;11.684;2022-08-01T12:06:02;23.20;99.90
7296;DHT22;40758;54.038;11.684;2022-08-01T12:08:33;23.20;99.90
7296;DHT22;40758;54.038;11.684;2022-08-01T12:11:04;23.20;99.90
7296;DHT22;40758;54.038;11.684;2022-08-01T12:13:40;23.10;99.90
7296;DHT22;40758;54.038;11.684;2022-08-01T12:16:11;23.00;99.90
7296;DHT22;40758;54.038;11.684;2022-08-01T12:18:43;22.90;99.90
7296;DHT22;40758;54.038;11.684;2022-08-01T12:21:12;23.00;99.90
7296;DHT22;40758;54.038;11.684;2022-08-01T12:23:43;23.20;99.90
7296;DHT22;40758;54.038;11.684;2022-08-01T12:26:13;23.30;99.90
7296;DHT22;40758;54.038;11.684;2022-08-01T12:28:58;23.50;99.90
7296;DHT22;40758;54.038;11.684;2022-08-01T12:31:33;23.80;99.90
7296;DHT22;40758;54.038;11.684;2022-08-01T12:34:28;24.00;99.90
7296;DHT22;40758;54.038;11.684;2022-08-01T12:37:06;24.00;99.90
7296;DHT22;40758;54.038;11.684;2022-08-01T12:39:37;24.00;99.90
7296;DHT22;40758;54.038;11.684;2022-08-01T12:42:15;24.10;99.90
7296;DHT22;40758;54.038;11.684;2022-08-01T12:44:55;24.50;99.90
7296;DHT22;40758;54.038;11.684;2022-08-01T12:47:27;24.60;99.90
7296;DHT22;40758;54.038;11.684;2022-08-01T12:49:56;24.80;99.90
7296;DHT22;40758;54.038;11.684;2022-08-01T12:52:26;24.80;99.90
7296;DHT22;40758;54.038;11.684;2022-08-01T12:55:13;24.60;99.90
7296;DHT22;40758;54.038;11.684;2022-08-01T12:57:45;24.50;99.90
7296;DHT22;40758;54.038;11.684;2022-08-01T13:00:21;24.60;99.90
7296;DHT22;40758;54.038;11.684;2022-08-01T13:03:01;24.60;99.90
7296;DHT22;40758;54.038;11.684;2022-08-01T13:05:51;24.60;99.90
7296;DHT22;40758;54.038;11.684;2022-08-01T13:08:24;25.10;99.90
7296;DHT22;40758;54.038;11.684;2022-08-01T13:11:03;25.10;99.90
7296;DHT22;40758;54.038;11.684;2022-08-01T13:13:45;25.20;99.90
7296;DHT22;40758;54.038;11.684;2022-08-01T13:16:20;25.20;99.90
7296;DHT22;40758;54.038;11.684;2022-08-01T13:19:19;25.40;99.90
7296;DHT22;40758;54.038;11.684;2022-08-01T13:21:57;25.40;99.90
7296;DHT22;40758;54.038;11.684;2022-08-01T13:24:30;25.60;99.90
7296;DHT22;40758;54.038;11.684;2022-08-01T13:27:03;25.90;99.90
7296;DHT22;40758;54.038;11.684;2022-08-01T13:29:40;26.00;99.90
7296;DHT22;40758;54.038;11.684;2022-08-01T13:32:21;26.30;99.90
7296;DHT22;40758;54.038;11.684;2022-08-01T13:35:01;26.30;99.90
7296;DHT22;40758;54.038;11.684;2022-08-01T13:37:34;26.30;99.90
7296;DHT22;40758;54.038;11.684;2022-08-01T13:40:10;26.30;99.90
7296;DHT22;40758;54.038;11.684;2022-08-01T13:42:41;26.30;99.90
7296;DHT22;40758;54.038;11.684;2022-08-01T13:45:15;26.50;99.90
7296;DHT22;40758;54.038;11.684;2022-08-01T13:47:48;26.30;99.90
7296;DHT22;40758;54.038;11.684;2022-08-01T13:50:39;26.40;99.90
7296;DHT22;40758;54.038;11.684;2022-08-01T13:53:08;26.50;99.90
7296;DHT22;40758;54.038;11.684;2022-08-01T13:55:38;26.40;99.90
7296;DHT22;40758;54.038;11.684;2022-08-01T13:58:10;26.30;99.90
7296;DHT22;40758;54.038;11.684;2022-08-01T14:00:40;26.10;99.90
7296;DHT22;40758;54.038;11.684;2022-08-01T14:03:10;26.10;99.90
7296;DHT22;40758;54.038;11.684;2022-08-01T14:05:39;26.20;99.90
7296;DHT22;40758;54.038;11.684;2022-08-01T14:08:09;26.50;99.90
7296;DHT22;40758;54.038;11.684;2022-08-01T14:10:42;26.50;99.90
7296;DHT22;40758;54.038;11.684;2022-08-01T14:13:13;26.60;99.90
7296;DHT22;40758;54.038;11.684;2022-08-01T14:15:43;26.40;99.90
7296;DHT22;40758;54.038;11.684;2022-08-01T14:18:12;26.40;99.90
7296;DHT22;40758;54.038;11.684;2022-08-01T14:20:42;26.50;99.90
7296;DHT22;40758;54.038;11.684;2022-08-01T14:23:12;26.60;99.90
7296;DHT22;40758;54.038;11.684;2022-08-01T14:25:41;26.50;99.90
7296;DHT22;40758;54.038;11.684;2022-08-01T14:28:32;26.60;99.90
7296;DHT22;40758;54.038;11.684;2022-08-01T14:31:03;26.70;99.90
7296;DHT22;40758;54.038;11.684;2022-08-01T14:33:33;26.40;99.90
7296;DHT22;40758;54.038;11.684;2022-08-01T14:36:03;26.40;99.90
7296;DHT22;40758;54.038;11.684;2022-08-01T14:38:53;26.60;99.90
7296;DHT22;40758;54.038;11.684;2022-08-01T14:41:26;26.90;99.90
7296;DHT22;40758;54.038;11.684;2022-08-01T14:43:59;27.00;99.90
7296;DHT22;40758;54.038;11.684;2022-08-01T14:46:28;27.00;99.90
7296;DHT22;40758;54.038;11.684;2022-08-01T14:49:00;26.70;99.90
7296;DHT22;40758;54.038;11.684;2022-08-01T14:51:29;26.50;99.90
7296;DHT22;40758;54.038;11.684;2022-08-01T14:54:02;26.70;99.90
7296;DHT22;40758;54.038;11.684;2022-08-01T14:56:33;26.70;99.90
7296;DHT22;40758;54.038;11.684;2022-08-01T14:59:03;26.60;99.90
7296;DHT22;40758;54.038;11.684;2022-08-01T15:01:47;26.90;99.90
7296;DHT22;40758;54.038;11.684;2022-08-01T15:04:16;26.90;99.90
7296;DHT22;40758;54.038;11.684;2022-08-01T15:06:45;26.70;99.90
7296;DHT22;40758;54.038;11.684;2022-08-01T15:09:15;26.30;99.90
7296;DHT22;40758;54.038;11.684;2022-08-01T15:11:44;26.60;99.90
7296;DHT22;40758;54.038;11.684;2022-08-01T15:14:16;27.10;99.90
7296;DHT22;40758;54.038;11.684;2022-08-01T15:17:02;27.20;99.40
7296;DHT22;40758;54.038;11.684;2022-08-01T15:19:31;27.50;99.30
7296;DHT22;40758;54.038;11.684;2022-08-01T15:22:13;27.70;95.40
7296;DHT22;40758;54.038;11.684;2022-08-01T15:24:51;27.30;94.00
7296;DHT22;40758;54.038;11.684;2022-08-01T15:27:23;26.90;97.60
7296;DHT22;40758;54.038;11.684;2022-08-01T15:29:56;26.70;96.20
7296;DHT22;40758;54.038;11.684;2022-08-01T15:32:25;26.30;93.80
7296;DHT22;40758;54.038;11.684;2022-08-01T15:34:54;26.10;99.90
7296;DHT22;40758;54.038;11.684;2022-08-01T15:37:23;26.30;97.70
7296;DHT22;40758;54.038;11.684;2022-08-01T15:39:52;26.20;97.40
7296;DHT22;40758;54.038;11.684;2022-08-01T15:42:23;26.40;97.20
7296;DHT22;40758;54.038;11.684;2022-08-01T15:44:54;26.20;96.10
7296;DHT22;40758;54.038;11.684;2022-08-01T15:47:23;25.80;96.70
7296;DHT22;40758;54.038;11.684;2022-08-01T15:49:52;25.90;97.50
7296;DHT22;40758;54.038;11.684;2022-08-01T15:52:22;25.90;95.80
7296;DHT22;40758;54.038;11.684;2022-08-01T15:54:58;25.80;95.40
7296;DHT22;40758;54.038;11.684;2022-08-01T15:57:29;25.70;95.70
7296;DHT22;40758;54.038;11.684;2022-08-01T16:00:06;25.70;94.90
7296;DHT22;40758;54.038;11.684;2022-08-01T16:02:36;25.70;95.40
7296;DHT22;40758;54.038;11.684;2022-08-01T16:05:07;25.40;95.60
7296;DHT22;40758;54.038;11.684;2022-08-01T16:07:44;25.60;96.00
7296;DHT22;40758;54.038;11.684;2022-08-01T16:10:27;25.70;96.80
7296;DHT22;40758;54.038;11.684;2022-08-01T16:12:58;25.60;95.40